createdAt,value
2023-05-22T00:09:47.216Z,100.00
2023-05-22T00:14:53.089Z,100.00
2023-05-22T00:19:56.488Z,100.00
2023-05-22T00:25:00.604Z,100.00
2023-05-22T00:30:03.860Z,100.00
2023-05-22T00:35:07.796Z,100.00
2023-05-22T00:40:15.587Z,100.00
2023-05-22T00:45:18.445Z,100.00
2023-05-22T00:50:21.549Z,100.00
2023-05-22T00:55:25.781Z,100.00
2023-05-22T01:00:28.732Z,100.00
2023-05-22T01:05:31.496Z,100.00
2023-05-22T01:10:38.107Z,100.00
2023-05-22T01:15:48.693Z,100.00
2023-05-22T01:20:58.871Z,100.00
2023-05-22T01:26:20.596Z,100.00
2023-05-22T01:31:28.441Z,100.00
2023-05-22T01:36:35.739Z,100.00
2023-05-22T01:41:38.573Z,100.00
2023-05-22T01:46:42.761Z,100.00
2023-05-22T01:51:53.736Z,100.00
2023-05-22T01:57:07.004Z,100.00
2023-05-22T02:02:14.630Z,100.00
2023-05-22T02:07:18.776Z,100.00
2023-05-22T02:12:23.623Z,100.00
2023-05-22T02:17:28.490Z,100.00
2023-05-22T02:22:31.342Z,100.00
2023-05-22T02:27:34.140Z,100.00
2023-05-22T02:32:40.320Z,100.00
2023-05-22T02:37:43.244Z,100.00
2023-05-22T02:42:46.122Z,100.00
2023-05-22T02:47:50.668Z,100.00
2023-05-22T02:52:53.617Z,100.00
2023-05-22T02:57:56.441Z,100.00
2023-05-22T03:03:02.755Z,100.00
2023-05-22T03:08:06.662Z,100.00
2023-05-22T03:13:09.784Z,100.00
2023-05-22T03:18:14.307Z,100.00
2023-05-22T03:23:18.824Z,100.00
2023-05-22T03:28:21.769Z,100.00
2023-05-22T03:33:26.503Z,100.00
2023-05-22T03:38:29.344Z,100.00
2023-05-22T03:43:32.276Z,100.00
2023-05-22T03:48:36.564Z,100.00
2023-05-22T03:53:39.494Z,100.00
2023-05-22T03:58:42.356Z,100.00
2023-05-22T04:03:47.864Z,100.00
2023-05-22T04:08:50.775Z,100.00
2023-05-22T04:13:54.463Z,100.00
2023-05-22T04:18:58.828Z,100.00
2023-05-22T04:24:02.588Z,100.00
2023-05-22T04:29:10.320Z,100.00
2023-05-22T04:34:17.167Z,100.00
2023-05-22T04:39:19.937Z,100.00
2023-05-22T04:44:23.759Z,100.00
2023-05-22T04:49:29.568Z,100.00
2023-05-22T04:54:32.395Z,100.00
2023-05-22T04:59:39.158Z,100.00
2023-05-22T05:04:43.501Z,100.00
2023-05-22T05:09:46.510Z,100.00
2023-05-22T05:14:53.540Z,100.00
2023-05-22T05:19:57.686Z,100.00
2023-05-22T05:25:00.959Z,100.00
2023-05-22T05:30:04.618Z,100.00
2023-05-22T05:35:22.991Z,100.00
2023-05-22T05:40:40.133Z,100.00
2023-05-22T05:45:46.012Z,100.00
2023-05-22T05:50:51.953Z,100.00
2023-05-22T05:55:55.676Z,100.00
2023-05-22T06:00:59.949Z,100.00
2023-05-22T06:06:06.070Z,100.00
2023-05-22T06:11:31.973Z,100.00
2023-05-22T06:16:37.875Z,100.00
2023-05-22T06:21:42.539Z,100.00
2023-05-22T06:26:45.664Z,100.00
2023-05-22T06:31:48.694Z,100.00
2023-05-22T06:36:56.352Z,100.00
2023-05-22T06:42:07.052Z,100.00
2023-05-22T06:47:28.394Z,100.00
2023-05-22T06:52:34.007Z,100.00
2023-05-22T06:57:39.000Z,100.00
2023-05-22T07:02:42.254Z,100.00
2023-05-22T07:08:10.469Z,100.00
2023-05-22T07:13:15.132Z,100.00
2023-05-22T07:18:20.445Z,100.00
2023-05-22T07:23:27.737Z,100.00
2023-05-22T07:28:32.129Z,100.00
2023-05-22T07:33:43.865Z,100.00
2023-05-22T07:38:50.582Z,100.00
2023-05-22T07:43:53.679Z,100.00
2023-05-22T07:49:05.186Z,100.00
2023-05-22T07:54:11.050Z,100.00
2023-05-22T07:59:20.780Z,100.00
2023-05-22T08:04:23.746Z,100.00
2023-05-22T08:09:29.092Z,100.00
2023-05-22T08:14:33.795Z,100.00
2023-05-22T08:19:36.781Z,100.00
2023-05-22T08:24:42.741Z,100.00
2023-05-22T08:29:45.581Z,100.00
2023-05-22T08:34:51.164Z,100.00
2023-05-22T08:39:55.575Z,100.00
2023-05-22T08:45:01.022Z,100.00
2023-05-22T08:50:07.303Z,100.00
2023-05-22T08:55:12.352Z,100.00
2023-05-22T09:00:16.945Z,100.00
2023-05-22T09:05:27.738Z,100.00
2023-05-22T09:10:31.955Z,100.00
2023-05-22T09:15:35.967Z,100.00
2023-05-22T09:20:42.026Z,100.00
2023-05-22T09:25:48.937Z,100.00
2023-05-22T09:30:53.143Z,98.10
2023-05-22T09:35:56.325Z,97.77
2023-05-22T09:41:01.223Z,97.27
2023-05-22T09:46:05.172Z,94.59
2023-05-22T09:51:10.382Z,94.77
2023-05-22T09:56:24.292Z,91.78
2023-05-22T10:01:42.349Z,90.74
2023-05-22T10:06:48.962Z,91.04
2023-05-22T10:11:56.286Z,88.91
2023-05-22T10:17:02.203Z,87.40
2023-05-22T10:22:09.274Z,86.76
2023-05-22T10:27:15.308Z,85.71
2023-05-22T10:32:26.131Z,84.33
2023-05-22T10:37:48.344Z,82.40
2023-05-22T10:42:54.284Z,83.78
2023-05-22T10:48:07.087Z,80.62
2023-05-22T10:53:23.991Z,79.65
2023-05-22T10:58:31.218Z,77.39
2023-05-22T11:03:54.071Z,79.19
2023-05-22T11:08:58.182Z,74.11
2023-05-22T11:14:04.460Z,72.21
2023-05-22T11:19:21.896Z,72.90
2023-05-22T11:24:26.775Z,70.78
2023-05-22T11:29:32.714Z,72.78
2023-05-22T11:34:37.099Z,68.48
2023-05-22T11:39:41.240Z,67.43
2023-05-22T11:44:46.519Z,67.75
2023-05-22T11:49:50.283Z,62.18
2023-05-22T11:54:54.255Z,64.45
2023-05-22T12:00:03.328Z,60.97
2023-05-22T12:05:16.631Z,58.69
2023-05-22T12:10:22.090Z,57.43
2023-05-22T12:15:27.380Z,54.19
2023-05-22T12:20:32.463Z,56.81
2023-05-22T12:25:37.450Z,54.41
2023-05-22T12:30:42.927Z,55.64
2023-05-22T12:35:46.112Z,53.02
2023-05-22T12:40:53.716Z,51.87
2023-05-22T12:45:59.275Z,49.55
2023-05-22T12:51:03.829Z,47.75
2023-05-22T12:56:10.248Z,50.45
2023-05-22T13:01:15.488Z,49.31
2023-05-22T13:06:19.561Z,47.48
2023-05-22T13:11:23.535Z,49.36
2023-05-22T13:16:30.362Z,47.13
2023-05-22T13:21:34.359Z,48.97
2023-05-22T13:26:37.472Z,47.38
2023-05-22T13:31:42.113Z,47.89
2023-05-22T13:36:47.061Z,45.45
2023-05-22T13:41:49.942Z,44.98
2023-05-22T13:46:54.127Z,44.27
2023-05-22T13:51:57.403Z,43.90
2023-05-22T13:57:04.509Z,44.61
2023-05-22T14:02:09.109Z,44.77
2023-05-22T14:07:12.510Z,44.75
2023-05-22T14:12:15.404Z,43.29
2023-05-22T14:17:23.188Z,42.48
2023-05-22T14:22:27.426Z,41.95
2023-05-22T14:27:31.530Z,41.77
2023-05-22T14:32:36.067Z,39.38
2023-05-22T14:37:39.489Z,40.29
2023-05-22T14:42:43.467Z,41.21
2023-05-22T14:47:47.909Z,40.80
2023-05-22T14:52:51.312Z,40.17
2023-05-22T14:57:57.578Z,42.04
2023-05-22T15:03:03.667Z,41.96
2023-05-22T15:08:09.394Z,41.00
2023-05-22T15:13:13.619Z,39.07
2023-05-22T15:18:19.856Z,41.16
2023-05-22T15:23:25.443Z,41.12
2023-05-22T15:28:32.854Z,41.15
2023-05-22T15:33:39.502Z,42.07
2023-05-22T15:38:42.771Z,42.38
2023-05-22T15:43:50.749Z,42.72
2023-05-22T15:48:56.168Z,41.65
2023-05-22T15:53:59.221Z,40.37
2023-05-22T15:59:02.038Z,39.82
2023-05-22T16:04:06.534Z,42.81
2023-05-22T16:09:09.937Z,44.76
2023-05-22T16:14:12.832Z,45.30
2023-05-22T16:19:17.678Z,48.18
2023-05-22T16:24:21.614Z,52.16
2023-05-22T16:29:26.736Z,56.30
2023-05-22T16:34:33.925Z,60.82
2023-05-22T16:39:39.697Z,63.65
2023-05-22T16:44:42.467Z,66.96
2023-05-22T16:49:46.694Z,68.61
2023-05-22T16:54:49.526Z,69.53
2023-05-22T16:59:52.623Z,68.53
2023-05-22T17:04:56.960Z,72.58
2023-05-22T17:10:00.807Z,74.55
2023-05-22T17:15:03.748Z,77.01
2023-05-22T17:20:10.422Z,80.17
2023-05-22T17:25:14.896Z,81.06
2023-05-22T17:30:20.280Z,83.73
2023-05-22T17:35:25.999Z,84.77
2023-05-22T17:40:40.559Z,87.34
2023-05-22T17:45:50.244Z,89.47
2023-05-22T17:50:56.273Z,91.38
2023-05-22T17:55:59.073Z,94.78
2023-05-22T18:01:02.422Z,96.38
2023-05-22T18:06:07.683Z,97.78
2023-05-22T18:11:10.545Z,100.00
2023-05-22T18:16:14.417Z,100.00
2023-05-22T18:21:20.688Z,100.00
2023-05-22T18:26:24.697Z,100.00
2023-05-22T18:31:29.802Z,100.00
2023-05-22T18:36:34.715Z,100.00
2023-05-22T18:41:40.070Z,100.00
2023-05-22T18:46:42.940Z,100.00
2023-05-22T18:51:48.199Z,100.00
2023-05-22T18:56:51.171Z,100.00
2023-05-22T19:01:56.595Z,100.00
2023-05-22T19:07:01.527Z,100.00
2023-05-22T19:12:04.810Z,100.00
2023-05-22T19:17:07.953Z,100.00
2023-05-22T19:22:12.838Z,100.00
2023-05-22T19:27:15.648Z,100.00
2023-05-22T19:32:18.397Z,100.00
2023-05-22T19:37:22.580Z,100.00
2023-05-22T19:42:25.412Z,100.00
2023-05-22T19:47:28.267Z,100.00
2023-05-22T19:52:32.814Z,100.00
2023-05-22T19:57:38.425Z,100.00
2023-05-22T20:02:42.714Z,100.00
2023-05-22T20:07:48.610Z,100.00
2023-05-22T20:12:54.015Z,100.00
2023-05-22T20:17:57.955Z,100.00
2023-05-22T20:23:02.212Z,100.00
2023-05-22T20:28:05.531Z,100.00
2023-05-22T20:33:08.439Z,100.00
2023-05-22T20:38:14.816Z,100.00
2023-05-22T20:43:18.903Z,100.00
2023-05-22T20:48:21.784Z,100.00
2023-05-22T20:53:26.867Z,100.00
2023-05-22T20:58:29.903Z,100.00
2023-05-22T21:03:32.865Z,100.00
2023-05-22T21:08:36.997Z,100.00
2023-05-22T21:13:39.772Z,100.00
2023-05-22T21:18:42.657Z,100.00
2023-05-22T21:23:47.986Z,100.00
2023-05-22T21:28:50.740Z,100.00
2023-05-22T21:33:53.629Z,100.00
2023-05-22T21:39:00.293Z,100.00
2023-05-22T21:44:03.219Z,100.00
2023-05-22T21:49:09.762Z,100.00
2023-05-22T21:54:15.328Z,100.00
2023-05-22T21:59:18.394Z,100.00
2023-05-22T22:04:21.925Z,100.00
2023-05-22T22:09:26.548Z,100.00
2023-05-22T22:14:29.316Z,100.00
2023-05-22T22:19:32.899Z,100.00
2023-05-22T22:24:37.477Z,100.00
2023-05-22T22:29:41.747Z,100.00
2023-05-22T22:34:45.328Z,100.00
2023-05-22T22:39:49.652Z,100.00
2023-05-22T22:44:52.567Z,100.00
2023-05-22T22:49:57.234Z,100.00
2023-05-22T22:55:01.453Z,100.00
2023-05-22T23:00:05.995Z,100.00
2023-05-22T23:05:10.370Z,100.00
2023-05-22T23:10:14.566Z,100.00
2023-05-22T23:15:17.438Z,100.00
2023-05-22T23:20:20.434Z,100.00
2023-05-22T23:25:24.953Z,100.00
2023-05-22T23:30:28.089Z,100.00
2023-05-22T23:35:31.003Z,100.00
2023-05-22T23:40:35.212Z,100.00
2023-05-22T23:45:38.100Z,100.00
2023-05-22T23:50:40.956Z,100.00
2023-05-22T23:55:45.161Z,100.00
